Time;durP1;ratioP1;P1;durP2;ratioP2;P2;SDS_P1;SDS_P2;PMS_P1;PMS_P2;Temp;Humidity;BMP_temperature;BMP_pressure;BME280_temperature;BME280_humidity;BME280_pressure;Samples;Min_cycle;Max_cycle;Signal;HPM_P1;HPM_P2
2022/06/28 00:07:46;;;;;;;7.9;10.2;;;;;;;19.9;100;98590;;;;
2022/06/28 00:17:46;;;;;;;7.9;10.2;;;;;;;19.7;100;98570;;;;
2022/06/28 00:28:46;;;;;;;7.9;10.2;;;;;;;19.6;100;98590;;;;
2022/06/28 00:38:46;;;;;;;7.7;12.2;;;;;;;19.5;100;98590;;;;
2022/06/28 00:48:46;;;;;;;7.7;12.2;;;;;;;19.5;100;98590;;;;
2022/06/28 00:58:46;;;;;;;7.7;12.2;;;;;;;19.3;100;98590;;;;
2022/06/28 01:09:46;;;;;;;7.6;10.3;;;;;;;19.2;100;98580;;;;
2022/06/28 01:20:46;;;;;;;7.6;10.3;;;;;;;19.1;100;98580;;;;
2022/06/28 01:30:46;;;;;;;7.6;10.3;;;;;;;19;100;98590;;;;
2022/06/28 01:41:46;;;;;;;8;9.3;;;;;;;18.9;100;98600;;;;
2022/06/28 01:52:46;;;;;;;8;9.3;;;;;;;18.7;100;98610;;;;
2022/06/28 02:03:46;;;;;;;8;9.3;;;;;;;18.6;100;98630;;;;
2022/06/28 02:23:31;;;;;;;7.9;10.6;;;;;;;18.5;100;98640;;;;
2022/06/28 02:45:32;;;;;;;8.7;11.5;;;;;;;18.4;100;98660;;;;
2022/06/28 02:55:31;;;;;;;8.7;11.5;;;;;;;18.4;100;98660;;;;
2022/06/28 03:05:31;;;;;;;7.9;10.9;;;;;;;18.5;100;98660;;;;
2022/06/28 03:15:31;;;;;;;7.9;10.9;;;;;;;18.5;100;98660;;;;
2022/06/28 03:25:31;;;;;;;7.9;10.9;;;;;;;18.7;100;98660;;;;
2022/06/28 03:36:31;;;;;;;6.9;10.9;;;;;;;18.9;100;98660;;;;
2022/06/28 03:46:31;;;;;;;6.9;10.9;;;;;;;19.2;100;98660;;;;
2022/06/28 03:56:31;;;;;;;6.9;10.9;;;;;;;19.5;100;98670;;;;
2022/06/28 04:06:31;;;;;;;7.7;9.4;;;;;;;20;100;98680;;;;
2022/06/28 04:17:31;;;;;;;7.7;9.4;;;;;;;20.7;100;98680;;;;
2022/06/28 04:28:31;;;;;;;7.7;9.4;;;;;;;21.3;100;98670;;;;
2022/06/28 04:39:31;;;;;;;8.4;12.4;;;;;;;22.3;100;98680;;;;
2022/06/28 04:50:31;;;;;;;8.4;12.4;;;;;;;23.1;100;98680;;;;
2022/06/28 05:00:31;;;;;;;8.4;12.4;;;;;;;23.4;100;98680;;;;
2022/06/28 05:10:31;;;;;;;7.7;10.7;;;;;;;23.7;100;98680;;;;
2022/06/28 05:21:31;;;;;;;7.7;10.7;;;;;;;24;100;98670;;;;
2022/06/28 05:31:31;;;;;;;7.7;10.7;;;;;;;24.3;100;98660;;;;
2022/06/28 05:41:32;;;;;;;7.7;11.9;;;;;;;24.4;100;98650;;;;
2022/06/28 05:51:31;;;;;;;7.7;11.9;;;;;;;24.4;100;98630;;;;
2022/06/28 06:01:31;;;;;;;7.7;11.9;;;;;;;24.8;100;98640;;;;
2022/06/28 06:12:31;;;;;;;7.7;10.6;;;;;;;25.7;100;98640;;;;
2022/06/28 06:23:31;;;;;;;7.7;10.6;;;;;;;26.7;100;98640;;;;
2022/06/28 06:33:31;;;;;;;7.7;10.6;;;;;;;27;100;98650;;;;
2022/06/28 06:44:31;;;;;;;6.3;10.6;;;;;;;27.7;100;98650;;;;
2022/06/28 06:54:31;;;;;;;6.3;10.6;;;;;;;28;100;98660;;;;
2022/06/28 07:04:31;;;;;;;6.3;10.6;;;;;;;29;100;98660;;;;
2022/06/28 07:15:31;;;;;;;5.2;8.5;;;;;;;29.2;100;98670;;;;
2022/06/28 07:25:31;;;;;;;5.2;8.5;;;;;;;29.4;100;98670;;;;
2022/06/28 07:35:31;;;;;;;5.6;11.1;;;;;;;29.6;100;98660;;;;
2022/06/28 07:46:31;;;;;;;5.6;11.1;;;;;;;29.6;100;98650;;;;
2022/06/28 07:57:31;;;;;;;5.6;11.1;;;;;;;29.7;97.7;98650;;;;
2022/06/28 08:08:31;;;;;;;5.1;11.8;;;;;;;29.5;100;98660;;;;
2022/06/28 08:18:31;;;;;;;5.1;11.8;;;;;;;30.1;96.4;98670;;;;
2022/06/28 08:29:32;;;;;;;5.1;11.8;;;;;;;30.8;92.1;98680;;;;
2022/06/28 08:40:31;;;;;;;4.7;7.8;;;;;;;31.4;86.1;98690;;;;
2022/06/28 08:51:31;;;;;;;4.7;7.8;;;;;;;32.1;79.8;98690;;;;
2022/06/28 09:02:31;;;;;;;4.7;7.8;;;;;;;31.8;72.2;98670;;;;
2022/06/28 09:12:31;;;;;;;3.8;7.1;;;;;;;31.8;76.2;98660;;;;
2022/06/28 09:22:31;;;;;;;3.8;7.1;;;;;;;31.8;74.1;98660;;;;
2022/06/28 09:33:31;;;;;;;3.8;7.1;;;;;;;31.9;75.9;98670;;;;
2022/06/28 09:43:32;;;;;;;4.8;9.8;;;;;;;31.6;74.6;98680;;;;
2022/06/28 09:54:31;;;;;;;4.8;9.8;;;;;;;31.6;77.8;98690;;;;
2022/06/28 10:05:31;;;;;;;4.1;8.3;;;;;;;29.1;86.4;98800;;;;
2022/06/28 10:16:31;;;;;;;4.1;8.3;;;;;;;26.9;92.5;98850;;;;
2022/06/28 10:27:31;;;;;;;4.1;8.3;;;;;;;21;100;98870;;;;
2022/06/28 10:38:31;;;;;;;3.5;7.6;;;;;;;21.6;100;98760;;;;
2022/06/28 10:48:31;;;;;;;3.5;7.6;;;;;;;19.9;100;98840;;;;
2022/06/28 10:59:31;;;;;;;3.5;7.6;;;;;;;20;100;98820;;;;
2022/06/28 11:09:31;;;;;;;6.3;13.8;;;;;;;20.1;100;98830;;;;
2022/06/28 11:20:31;;;;;;;6.3;13.8;;;;;;;19.5;100;98850;;;;
2022/06/28 11:31:31;;;;;;;6.3;13.8;;;;;;;20.1;100;98860;;;;
2022/06/28 11:42:31;;;;;;;6.2;10.1;;;;;;;20.3;100;98830;;;;
2022/06/28 11:52:31;;;;;;;6.2;10.1;;;;;;;20.5;100;98840;;;;
2022/06/28 12:02:31;;;;;;;6.2;10.1;;;;;;;20.8;100;98870;;;;
2022/06/28 12:13:31;;;;;;;7.5;10.5;;;;;;;21.2;100;98890;;;;
2022/06/28 12:23:31;;;;;;;7.5;10.5;;;;;;;21.6;100;98890;;;;
2022/06/28 12:33:31;;;;;;;7.5;10.5;;;;;;;22;100;98910;;;;
2022/06/28 12:44:31;;;;;;;9.2;12;;;;;;;22.9;100;98900;;;;
2022/06/28 12:54:32;;;;;;;9.2;12;;;;;;;23.8;100;98900;;;;
2022/06/28 13:05:31;;;;;;;10.6;12.7;;;;;;;24;100;98880;;;;
2022/06/28 13:15:31;;;;;;;10.6;12.7;;;;;;;24.5;100;98870;;;;
2022/06/28 13:25:31;;;;;;;10.6;12.7;;;;;;;24.9;100;98860;;;;
2022/06/28 13:36:32;;;;;;;11;13;;;;;;;25.4;100;98840;;;;
2022/06/28 13:47:31;;;;;;;11;13;;;;;;;26;100;98850;;;;
2022/06/28 13:58:31;;;;;;;11;13;;;;;;;25.5;100;98840;;;;
2022/06/28 14:08:31;;;;;;;9.9;11.8;;;;;;;25.5;100;98830;;;;
2022/06/28 14:19:31;;;;;;;9.9;11.8;;;;;;;26;100;98830;;;;
2022/06/28 14:29:33;;;;;;;9.9;11.8;;;;;;;25.7;100;98830;;;;
2022/06/28 14:39:31;;;;;;;6;11;;;;;;;25.6;100;98840;;;;
2022/06/28 14:49:31;;;;;;;6;11;;;;;;;25.9;100;98840;;;;
2022/06/28 14:59:31;;;;;;;6;11;;;;;;;25.4;100;98860;;;;
2022/06/28 15:10:31;;;;;;;3.6;6.5;;;;;;;24.7;100;98860;;;;
2022/06/28 15:20:31;;;;;;;3.6;6.5;;;;;;;24.3;100;98870;;;;
2022/06/28 15:31:31;;;;;;;3.6;6.5;;;;;;;24.5;100;98860;;;;
2022/06/28 15:41:31;;;;;;;4;6.3;;;;;;;25.4;100;98880;;;;
2022/06/28 15:52:31;;;;;;;4;6.3;;;;;;;28.8;100;98900;;;;
2022/06/28 16:02:31;;;;;;;4;6.3;;;;;;;31.2;100;98900;;;;
2022/06/28 16:13:31;;;;;;;4.6;7.7;;;;;;;32.4;100;98890;;;;
2022/06/28 16:24:31;;;;;;;4.6;7.7;;;;;;;33.2;99.3;98890;;;;
2022/06/28 16:34:31;;;;;;;4.6;7.7;;;;;;;33;97.7;98890;;;;
2022/06/28 16:44:32;;;;;;;4.7;7.1;;;;;;;33.2;95.6;98880;;;;
2022/06/28 16:55:31;;;;;;;4.7;7.1;;;;;;;29.9;100;98870;;;;
2022/06/28 17:05:31;;;;;;;4.7;7.1;;;;;;;28.4;100;98850;;;;
2022/06/28 17:15:31;;;;;;;4.5;7.5;;;;;;;28.3;100;98850;;;;
2022/06/28 17:26:31;;;;;;;4.5;7.5;;;;;;;27.2;100;98850;;;;
2022/06/28 17:37:31;;;;;;;9.4;13.9;;;;;;;26.2;100;98830;;;;
2022/06/28 17:47:31;;;;;;;9.4;13.9;;;;;;;25.6;100;98810;;;;
2022/06/28 17:58:31;;;;;;;9.4;13.9;;;;;;;25.6;100;98810;;;;
2022/06/28 18:08:31;;;;;;;5.8;9.2;;;;;;;25.4;100;98810;;;;
2022/06/28 18:18:31;;;;;;;5.8;9.2;;;;;;;25.1;100;98800;;;;
2022/06/28 18:29:31;;;;;;;5.8;9.2;;;;;;;24.7;100;98820;;;;
2022/06/28 18:39:31;;;;;;;8.3;11.8;;;;;;;24.2;100;98830;;;;
2022/06/28 18:50:31;;;;;;;8.3;11.8;;;;;;;23.6;100;98830;;;;
2022/06/28 19:00:32;;;;;;;8.3;11.8;;;;;;;23.2;100;98840;;;;
2022/06/28 19:11:31;;;;;;;5.3;8.3;;;;;;;22.6;100;98870;;;;
2022/06/28 19:22:31;;;;;;;5.3;8.3;;;;;;;22.3;100;98900;;;;
2022/06/28 19:33:31;;;;;;;5.3;8.3;;;;;;;21.9;100;98910;;;;
2022/06/28 19:43:32;;;;;;;6.7;9.4;;;;;;;21.7;100;98920;;;;
2022/06/28 19:53:31;;;;;;;6.7;9.4;;;;;;;21.6;100;98920;;;;
2022/06/28 20:04:32;;;;;;;6.7;9.4;;;;;;;21.3;100;98920;;;;
2022/06/28 20:15:32;;;;;;;6.7;9.6;;;;;;;21.1;100;98910;;;;
2022/06/28 20:26:32;;;;;;;6.7;9.6;;;;;;;20.8;100;98900;;;;
2022/06/28 20:36:32;;;;;;;6.8;10.2;;;;;;;20.7;100;98890;;;;
2022/06/28 20:46:32;;;;;;;6.8;10.2;;;;;;;20.7;100;98870;;;;
2022/06/28 20:57:31;;;;;;;6.8;10.2;;;;;;;20.7;100;98880;;;;
2022/06/28 21:07:32;;;;;;;6.9;9.9;;;;;;;20.7;100;98890;;;;
2022/06/28 21:17:31;;;;;;;6.9;9.9;;;;;;;20.6;100;98900;;;;
2022/06/28 21:27:32;;;;;;;6.9;9.9;;;;;;;20.6;100;98900;;;;
2022/06/28 21:37:32;;;;;;;7.6;10.2;;;;;;;20.7;100;98910;;;;
2022/06/28 21:48:31;;;;;;;7.6;10.2;;;;;;;20.8;100;98920;;;;
2022/06/28 21:59:32;;;;;;;7.6;10.2;;;;;;;20.8;100;98910;;;;
2022/06/28 22:09:32;;;;;;;8.8;10.8;;;;;;;20.8;100;98910;;;;
2022/06/28 22:20:31;;;;;;;8.8;10.8;;;;;;;20.7;100;98910;;;;
2022/06/28 22:30:32;;;;;;;8.8;10.8;;;;;;;20.3;100;98900;;;;
2022/06/28 22:40:32;;;;;;;9.1;14.4;;;;;;;20.3;100;98900;;;;
2022/06/28 22:50:32;;;;;;;9.1;14.4;;;;;;;20.1;100;98890;;;;
2022/06/28 23:01:32;;;;;;;9.1;14.4;;;;;;;19.8;100;98850;;;;
2022/06/28 23:11:32;;;;;;;9.5;14.4;;;;;;;19.7;100;98840;;;;
2022/06/28 23:21:32;;;;;;;9.5;14.4;;;;;;;19.6;100;98850;;;;
2022/06/28 23:32:32;;;;;;;9.5;14.4;;;;;;;19.6;100;98860;;;;
2022/06/28 23:42:32;;;;;;;12.2;14.3;;;;;;;19.5;100;98850;;;;
2022/06/28 23:52:32;;;;;;;12.2;14.3;;;;;;;19.6;100;98860;;;;
